sensor_id;sensor_type;location;lat;lon;timestamp;P1;durP1;ratioP1;P2;durP2;ratioP2
64834;SDS011;51293;59.296;18.006;2023-01-04T00:00:10;3.13;;;1.40;;
64834;SDS011;51293;59.296;18.006;2023-01-04T00:02:36;2.78;;;1.58;;
64834;SDS011;51293;59.296;18.006;2023-01-04T00:05:01;3.65;;;1.65;;
64834;SDS011;51293;59.296;18.006;2023-01-04T00:07:30;3.35;;;1.63;;
64834;SDS011;51293;59.296;18.006;2023-01-04T00:09:55;2.80;;;1.35;;
64834;SDS011;51293;59.296;18.006;2023-01-04T00:12:21;4.68;;;1.45;;
64834;SDS011;51293;59.296;18.006;2023-01-04T00:14:46;3.40;;;1.65;;
64834;SDS011;51293;59.296;18.006;2023-01-04T00:17:11;2.63;;;1.60;;
64834;SDS011;51293;59.296;18.006;2023-01-04T00:19:37;2.13;;;1.25;;
64834;SDS011;51293;59.296;18.006;2023-01-04T00:22:02;7.43;;;1.50;;
64834;SDS011;51293;59.296;18.006;2023-01-04T00:24:28;2.15;;;1.50;;
64834;SDS011;51293;59.296;18.006;2023-01-04T00:26:53;3.28;;;1.30;;
64834;SDS011;51293;59.296;18.006;2023-01-04T00:29:18;3.05;;;1.58;;
64834;SDS011;51293;59.296;18.006;2023-01-04T00:31:44;2.72;;;1.48;;
64834;SDS011;51293;59.296;18.006;2023-01-04T00:34:10;1.95;;;1.30;;
64834;SDS011;51293;59.296;18.006;2023-01-04T00:36:38;3.28;;;1.65;;
64834;SDS011;51293;59.296;18.006;2023-01-04T00:39:03;2.97;;;1.50;;
64834;SDS011;51293;59.296;18.006;2023-01-04T00:41:50;3.88;;;1.60;;
64834;SDS011;51293;59.296;18.006;2023-01-04T00:44:17;2.63;;;1.30;;
64834;SDS011;51293;59.296;18.006;2023-01-04T00:46:45;2.88;;;1.40;;
64834;SDS011;51293;59.296;18.006;2023-01-04T00:49:11;2.50;;;1.40;;
64834;SDS011;51293;59.296;18.006;2023-01-04T00:51:38;2.60;;;1.38;;
64834;SDS011;51293;59.296;18.006;2023-01-04T00:54:07;3.15;;;1.75;;
64834;SDS011;51293;59.296;18.006;2023-01-04T00:56:36;3.47;;;1.70;;
64834;SDS011;51293;59.296;18.006;2023-01-04T00:59:01;3.67;;;1.30;;
64834;SDS011;51293;59.296;18.006;2023-01-04T01:01:29;3.00;;;1.58;;
64834;SDS011;51293;59.296;18.006;2023-01-04T01:03:55;3.60;;;1.50;;
64834;SDS011;51293;59.296;18.006;2023-01-04T01:06:23;2.42;;;1.20;;
64834;SDS011;51293;59.296;18.006;2023-01-04T01:08:49;2.38;;;1.40;;
64834;SDS011;51293;59.296;18.006;2023-01-04T01:11:15;4.03;;;1.75;;
64834;SDS011;51293;59.296;18.006;2023-01-04T01:13:41;3.40;;;1.65;;
64834;SDS011;51293;59.296;18.006;2023-01-04T01:16:08;4.03;;;1.67;;
64834;SDS011;51293;59.296;18.006;2023-01-04T01:18:36;2.08;;;1.23;;
64834;SDS011;51293;59.296;18.006;2023-01-04T01:21:04;3.83;;;1.60;;
64834;SDS011;51293;59.296;18.006;2023-01-04T01:23:30;4.18;;;1.50;;
64834;SDS011;51293;59.296;18.006;2023-01-04T01:25:59;2.85;;;1.35;;
64834;SDS011;51293;59.296;18.006;2023-01-04T01:28:26;2.97;;;1.40;;
64834;SDS011;51293;59.296;18.006;2023-01-04T01:30:51;3.20;;;1.50;;
64834;SDS011;51293;59.296;18.006;2023-01-04T01:33:17;3.40;;;1.52;;
64834;SDS011;51293;59.296;18.006;2023-01-04T01:35:42;2.40;;;1.42;;
64834;SDS011;51293;59.296;18.006;2023-01-04T01:38:08;2.88;;;1.63;;
64834;SDS011;51293;59.296;18.006;2023-01-04T01:40:33;2.47;;;1.42;;
64834;SDS011;51293;59.296;18.006;2023-01-04T01:42:58;3.70;;;1.45;;
64834;SDS011;51293;59.296;18.006;2023-01-04T01:47:58;4.77;;;1.60;;
64834;SDS011;51293;59.296;18.006;2023-01-04T01:50:37;2.67;;;1.55;;
64834;SDS011;51293;59.296;18.006;2023-01-04T01:53:08;2.10;;;1.40;;
64834;SDS011;51293;59.296;18.006;2023-01-04T01:55:35;2.20;;;1.40;;
64834;SDS011;51293;59.296;18.006;2023-01-04T01:58:03;2.13;;;1.60;;
64834;SDS011;51293;59.296;18.006;2023-01-04T02:00:30;3.75;;;1.40;;
64834;SDS011;51293;59.296;18.006;2023-01-04T02:05:21;3.25;;;1.70;;
64834;SDS011;51293;59.296;18.006;2023-01-04T02:07:46;3.15;;;1.40;;
64834;SDS011;51293;59.296;18.006;2023-01-04T02:10:13;2.83;;;1.60;;
64834;SDS011;51293;59.296;18.006;2023-01-04T02:12:39;2.22;;;1.40;;
64834;SDS011;51293;59.296;18.006;2023-01-04T02:15:06;2.42;;;1.27;;
64834;SDS011;51293;59.296;18.006;2023-01-04T02:17:39;3.65;;;1.45;;
64834;SDS011;51293;59.296;18.006;2023-01-04T02:20:31;3.30;;;1.50;;
64834;SDS011;51293;59.296;18.006;2023-01-04T02:32:32;3.08;;;1.35;;
64834;SDS011;51293;59.296;18.006;2023-01-04T02:35:45;2.17;;;1.33;;
64834;SDS011;51293;59.296;18.006;2023-01-04T02:38:05;4.85;;;1.35;;
64834;SDS011;51293;59.296;18.006;2023-01-04T02:43:37;2.28;;;1.50;;
64834;SDS011;51293;59.296;18.006;2023-01-04T02:46:44;2.40;;;1.55;;
64834;SDS011;51293;59.296;18.006;2023-01-04T02:49:13;5.13;;;1.70;;
64834;SDS011;51293;59.296;18.006;2023-01-04T02:51:57;4.47;;;1.70;;
64834;SDS011;51293;59.296;18.006;2023-01-04T02:54:24;4.20;;;1.55;;
64834;SDS011;51293;59.296;18.006;2023-01-04T02:59:27;3.40;;;1.52;;
64834;SDS011;51293;59.296;18.006;2023-01-04T03:02:11;2.38;;;1.45;;
64834;SDS011;51293;59.296;18.006;2023-01-04T03:06:01;2.83;;;1.50;;
64834;SDS011;51293;59.296;18.006;2023-01-04T03:09:25;5.85;;;1.60;;
64834;SDS011;51293;59.296;18.006;2023-01-04T03:11:43;2.63;;;1.52;;
64834;SDS011;51293;59.296;18.006;2023-01-04T03:14:32;2.15;;;1.35;;
64834;SDS011;51293;59.296;18.006;2023-01-04T03:17:03;2.90;;;1.65;;
64834;SDS011;51293;59.296;18.006;2023-01-04T03:19:34;4.07;;;1.50;;
64834;SDS011;51293;59.296;18.006;2023-01-04T03:22:17;2.95;;;1.63;;
64834;SDS011;51293;59.296;18.006;2023-01-04T03:25:12;2.40;;;1.40;;
64834;SDS011;51293;59.296;18.006;2023-01-04T03:27:59;3.00;;;1.65;;
64834;SDS011;51293;59.296;18.006;2023-01-04T03:30:54;4.88;;;1.50;;
64834;SDS011;51293;59.296;18.006;2023-01-04T03:33:44;3.83;;;1.52;;
64834;SDS011;51293;59.296;18.006;2023-01-04T03:42:12;3.88;;;1.50;;
64834;SDS011;51293;59.296;18.006;2023-01-04T03:50:51;8.25;;;1.88;;
64834;SDS011;51293;59.296;18.006;2023-01-04T03:55:50;3.80;;;1.77;;
64834;SDS011;51293;59.296;18.006;2023-01-04T03:58:18;3.33;;;1.85;;
64834;SDS011;51293;59.296;18.006;2023-01-04T04:00:45;2.78;;;1.60;;
64834;SDS011;51293;59.296;18.006;2023-01-04T04:03:11;3.47;;;1.75;;
64834;SDS011;51293;59.296;18.006;2023-01-04T04:05:37;2.83;;;1.42;;
64834;SDS011;51293;59.296;18.006;2023-01-04T04:08:23;2.30;;;1.60;;
64834;SDS011;51293;59.296;18.006;2023-01-04T04:10:52;3.80;;;1.63;;
64834;SDS011;51293;59.296;18.006;2023-01-04T04:13:20;4.45;;;1.90;;
64834;SDS011;51293;59.296;18.006;2023-01-04T04:15:46;3.67;;;1.80;;
64834;SDS011;51293;59.296;18.006;2023-01-04T04:18:12;2.42;;;1.55;;
64834;SDS011;51293;59.296;18.006;2023-01-04T04:20:37;3.53;;;1.40;;
64834;SDS011;51293;59.296;18.006;2023-01-04T04:23:03;3.13;;;1.83;;
64834;SDS011;51293;59.296;18.006;2023-01-04T04:25:28;4.20;;;1.70;;
64834;SDS011;51293;59.296;18.006;2023-01-04T04:27:53;3.30;;;1.70;;
64834;SDS011;51293;59.296;18.006;2023-01-04T04:30:19;6.05;;;2.00;;
64834;SDS011;51293;59.296;18.006;2023-01-04T04:32:44;4.07;;;1.98;;
64834;SDS011;51293;59.296;18.006;2023-01-04T04:35:09;3.50;;;1.92;;
64834;SDS011;51293;59.296;18.006;2023-01-04T04:37:35;4.30;;;1.95;;
64834;SDS011;51293;59.296;18.006;2023-01-04T04:40:01;6.28;;;2.15;;
64834;SDS011;51293;59.296;18.006;2023-01-04T04:42:27;7.38;;;1.98;;
64834;SDS011;51293;59.296;18.006;2023-01-04T04:44:53;4.65;;;2.20;;
64834;SDS011;51293;59.296;18.006;2023-01-04T04:47:18;5.18;;;2.03;;
64834;SDS011;51293;59.296;18.006;2023-01-04T04:49:43;4.57;;;2.03;;
64834;SDS011;51293;59.296;18.006;2023-01-04T04:52:09;4.00;;;1.90;;
64834;SDS011;51293;59.296;18.006;2023-01-04T04:54:34;3.00;;;1.80;;
64834;SDS011;51293;59.296;18.006;2023-01-04T04:57:00;4.90;;;2.08;;
64834;SDS011;51293;59.296;18.006;2023-01-04T04:59:25;3.42;;;2.10;;
64834;SDS011;51293;59.296;18.006;2023-01-04T05:01:50;5.55;;;2.20;;
64834;SDS011;51293;59.296;18.006;2023-01-04T05:04:16;3.53;;;2.30;;
64834;SDS011;51293;59.296;18.006;2023-01-04T05:06:43;5.20;;;2.20;;
64834;SDS011;51293;59.296;18.006;2023-01-04T05:09:11;3.97;;;1.83;;
64834;SDS011;51293;59.296;18.006;2023-01-04T05:11:40;4.30;;;1.90;;
64834;SDS011;51293;59.296;18.006;2023-01-04T05:14:41;5.03;;;2.00;;
64834;SDS011;51293;59.296;18.006;2023-01-04T05:17:06;4.57;;;2.30;;
64834;SDS011;51293;59.296;18.006;2023-01-04T05:19:31;4.40;;;2.03;;
64834;SDS011;51293;59.296;18.006;2023-01-04T05:21:57;5.55;;;2.28;;
64834;SDS011;51293;59.296;18.006;2023-01-04T05:24:22;6.25;;;2.00;;
64834;SDS011;51293;59.296;18.006;2023-01-04T05:26:47;2.85;;;2.03;;
64834;SDS011;51293;59.296;18.006;2023-01-04T05:29:13;4.90;;;2.22;;
64834;SDS011;51293;59.296;18.006;2023-01-04T05:31:58;4.03;;;2.05;;
64834;SDS011;51293;59.296;18.006;2023-01-04T05:34:23;6.95;;;2.10;;
64834;SDS011;51293;59.296;18.006;2023-01-04T05:36:49;3.35;;;1.92;;
64834;SDS011;51293;59.296;18.006;2023-01-04T05:39:17;4.38;;;1.98;;
64834;SDS011;51293;59.296;18.006;2023-01-04T05:41:42;5.10;;;2.20;;
64834;SDS011;51293;59.296;18.006;2023-01-04T05:44:26;5.55;;;2.13;;
64834;SDS011;51293;59.296;18.006;2023-01-04T05:46:51;3.55;;;1.95;;
64834;SDS011;51293;59.296;18.006;2023-01-04T05:49:17;7.22;;;2.30;;
64834;SDS011;51293;59.296;18.006;2023-01-04T05:51:42;4.32;;;2.50;;
64834;SDS011;51293;59.296;18.006;2023-01-04T05:54:07;5.03;;;2.38;;
64834;SDS011;51293;59.296;18.006;2023-01-04T05:56:33;6.13;;;2.10;;
64834;SDS011;51293;59.296;18.006;2023-01-04T05:58:58;5.90;;;2.45;;
64834;SDS011;51293;59.296;18.006;2023-01-04T06:01:23;7.20;;;2.10;;
64834;SDS011;51293;59.296;18.006;2023-01-04T06:03:49;5.35;;;2.45;;
64834;SDS011;51293;59.296;18.006;2023-01-04T06:06:14;4.88;;;2.22;;
64834;SDS011;51293;59.296;18.006;2023-01-04T06:08:40;4.07;;;2.22;;
64834;SDS011;51293;59.296;18.006;2023-01-04T06:11:05;4.68;;;2.50;;
64834;SDS011;51293;59.296;18.006;2023-01-04T06:13:30;4.32;;;2.20;;
64834;SDS011;51293;59.296;18.006;2023-01-04T06:15:56;6.57;;;2.63;;
64834;SDS011;51293;59.296;18.006;2023-01-04T06:18:21;8.25;;;2.28;;
64834;SDS011;51293;59.296;18.006;2023-01-04T06:20:46;5.90;;;2.10;;
64834;SDS011;51293;59.296;18.006;2023-01-04T06:23:15;4.97;;;2.40;;
64834;SDS011;51293;59.296;18.006;2023-01-04T06:25:41;6.95;;;2.33;;
64834;SDS011;51293;59.296;18.006;2023-01-04T06:28:06;3.72;;;2.15;;
64834;SDS011;51293;59.296;18.006;2023-01-04T06:30:32;9.13;;;2.13;;
64834;SDS011;51293;59.296;18.006;2023-01-04T06:32:58;4.28;;;2.20;;
64834;SDS011;51293;59.296;18.006;2023-01-04T06:35:24;8.27;;;2.15;;
64834;SDS011;51293;59.296;18.006;2023-01-04T06:37:49;11.60;;;2.55;;
64834;SDS011;51293;59.296;18.006;2023-01-04T06:40:14;5.78;;;2.30;;
64834;SDS011;51293;59.296;18.006;2023-01-04T06:42:40;3.58;;;2.00;;
64834;SDS011;51293;59.296;18.006;2023-01-04T06:45:08;7.15;;;2.55;;
64834;SDS011;51293;59.296;18.006;2023-01-04T06:47:34;7.88;;;2.67;;
64834;SDS011;51293;59.296;18.006;2023-01-04T06:50:00;11.23;;;2.83;;
64834;SDS011;51293;59.296;18.006;2023-01-04T06:52:25;7.30;;;2.45;;
64834;SDS011;51293;59.296;18.006;2023-01-04T06:54:51;8.23;;;3.63;;
64834;SDS011;51293;59.296;18.006;2023-01-04T06:57:16;8.52;;;4.55;;
64834;SDS011;51293;59.296;18.006;2023-01-04T06:59:42;7.40;;;4.28;;
64834;SDS011;51293;59.296;18.006;2023-01-04T07:02:08;7.07;;;4.47;;
64834;SDS011;51293;59.296;18.006;2023-01-04T07:04:37;9.68;;;4.78;;
64834;SDS011;51293;59.296;18.006;2023-01-04T07:07:03;8.90;;;4.90;;
64834;SDS011;51293;59.296;18.006;2023-01-04T07:09:28;8.38;;;4.88;;
64834;SDS011;51293;59.296;18.006;2023-01-04T07:11:53;9.88;;;4.82;;
64834;SDS011;51293;59.296;18.006;2023-01-04T07:14:19;7.45;;;4.20;;
64834;SDS011;51293;59.296;18.006;2023-01-04T07:16:44;8.40;;;4.75;;
64834;SDS011;51293;59.296;18.006;2023-01-04T07:19:09;8.00;;;4.30;;
64834;SDS011;51293;59.296;18.006;2023-01-04T07:21:35;8.38;;;4.65;;
64834;SDS011;51293;59.296;18.006;2023-01-04T07:24:00;11.02;;;5.38;;
64834;SDS011;51293;59.296;18.006;2023-01-04T07:26:26;9.77;;;5.18;;
64834;SDS011;51293;59.296;18.006;2023-01-04T07:28:51;10.80;;;4.82;;
64834;SDS011;51293;59.296;18.006;2023-01-04T07:31:35;9.60;;;5.18;;
64834;SDS011;51293;59.296;18.006;2023-01-04T07:34:00;9.32;;;4.55;;
64834;SDS011;51293;59.296;18.006;2023-01-04T07:36:25;8.60;;;5.05;;
64834;SDS011;51293;59.296;18.006;2023-01-04T07:38:51;8.82;;;4.25;;
64834;SDS011;51293;59.296;18.006;2023-01-04T07:41:16;6.88;;;3.58;;
64834;SDS011;51293;59.296;18.006;2023-01-04T07:43:41;5.47;;;3.38;;
64834;SDS011;51293;59.296;18.006;2023-01-04T07:46:07;6.82;;;3.15;;
64834;SDS011;51293;59.296;18.006;2023-01-04T07:48:32;6.85;;;3.80;;
64834;SDS011;51293;59.296;18.006;2023-01-04T07:50:57;11.80;;;3.85;;
64834;SDS011;51293;59.296;18.006;2023-01-04T07:53:23;6.93;;;3.50;;
64834;SDS011;51293;59.296;18.006;2023-01-04T07:55:53;8.55;;;3.95;;
64834;SDS011;51293;59.296;18.006;2023-01-04T07:58:19;18.42;;;4.63;;
64834;SDS011;51293;59.296;18.006;2023-01-04T08:00:45;12.30;;;4.22;;
64834;SDS011;51293;59.296;18.006;2023-01-04T08:03:10;8.68;;;3.85;;
64834;SDS011;51293;59.296;18.006;2023-01-04T08:05:35;11.15;;;4.28;;
64834;SDS011;51293;59.296;18.006;2023-01-04T08:08:01;10.70;;;3.88;;
64834;SDS011;51293;59.296;18.006;2023-01-04T08:10:26;8.20;;;3.50;;
64834;SDS011;51293;59.296;18.006;2023-01-04T08:12:52;7.68;;;3.53;;
64834;SDS011;51293;59.296;18.006;2023-01-04T08:15:17;6.43;;;3.40;;
64834;SDS011;51293;59.296;18.006;2023-01-04T08:17:43;5.35;;;2.95;;
64834;SDS011;51293;59.296;18.006;2023-01-04T08:20:09;8.57;;;3.17;;
64834;SDS011;51293;59.296;18.006;2023-01-04T08:22:34;8.23;;;2.80;;
64834;SDS011;51293;59.296;18.006;2023-01-04T08:25:00;5.47;;;2.67;;
64834;SDS011;51293;59.296;18.006;2023-01-04T08:27:25;6.68;;;2.58;;
64834;SDS011;51293;59.296;18.006;2023-01-04T08:29:50;4.47;;;2.33;;
64834;SDS011;51293;59.296;18.006;2023-01-04T08:32:16;6.07;;;2.50;;
64834;SDS011;51293;59.296;18.006;2023-01-04T08:34:41;5.47;;;2.55;;
64834;SDS011;51293;59.296;18.006;2023-01-04T08:37:07;4.85;;;2.42;;
64834;SDS011;51293;59.296;18.006;2023-01-04T08:39:32;4.95;;;2.60;;
64834;SDS011;51293;59.296;18.006;2023-01-04T08:42:00;5.28;;;2.42;;
64834;SDS011;51293;59.296;18.006;2023-01-04T08:44:25;5.95;;;2.60;;
64834;SDS011;51293;59.296;18.006;2023-01-04T08:46:51;6.05;;;2.60;;
64834;SDS011;51293;59.296;18.006;2023-01-04T08:49:17;5.28;;;2.80;;
64834;SDS011;51293;59.296;18.006;2023-01-04T08:51:43;5.03;;;2.45;;
64834;SDS011;51293;59.296;18.006;2023-01-04T08:54:09;5.13;;;2.83;;
64834;SDS011;51293;59.296;18.006;2023-01-04T08:56:34;6.60;;;2.70;;
64834;SDS011;51293;59.296;18.006;2023-01-04T08:59:00;4.88;;;2.60;;
64834;SDS011;51293;59.296;18.006;2023-01-04T09:01:26;5.43;;;2.70;;
64834;SDS011;51293;59.296;18.006;2023-01-04T09:03:51;3.00;;;2.03;;
64834;SDS011;51293;59.296;18.006;2023-01-04T09:06:19;4.43;;;2.08;;
64834;SDS011;51293;59.296;18.006;2023-01-04T09:08:45;5.13;;;2.65;;
64834;SDS011;51293;59.296;18.006;2023-01-04T09:11:12;6.75;;;2.22;;
64834;SDS011;51293;59.296;18.006;2023-01-04T09:13:39;5.82;;;2.25;;
64834;SDS011;51293;59.296;18.006;2023-01-04T09:16:08;4.78;;;2.17;;
64834;SDS011;51293;59.296;18.006;2023-01-04T09:18:42;7.70;;;2.28;;
64834;SDS011;51293;59.296;18.006;2023-01-04T09:21:09;6.35;;;2.38;;
64834;SDS011;51293;59.296;18.006;2023-01-04T09:23:37;5.95;;;2.55;;
64834;SDS011;51293;59.296;18.006;2023-01-04T09:26:06;4.53;;;2.67;;
64834;SDS011;51293;59.296;18.006;2023-01-04T09:28:33;9.68;;;2.60;;
64834;SDS011;51293;59.296;18.006;2023-01-04T09:31:03;3.75;;;2.20;;
64834;SDS011;51293;59.296;18.006;2023-01-04T09:33:29;3.63;;;2.08;;
64834;SDS011;51293;59.296;18.006;2023-01-04T09:35:55;4.10;;;2.13;;
64834;SDS011;51293;59.296;18.006;2023-01-04T09:38:24;4.43;;;2.30;;
64834;SDS011;51293;59.296;18.006;2023-01-04T09:40:59;4.45;;;2.72;;
64834;SDS011;51293;59.296;18.006;2023-01-04T09:43:36;4.40;;;2.10;;
64834;SDS011;51293;59.296;18.006;2023-01-04T09:49:15;5.05;;;2.40;;
64834;SDS011;51293;59.296;18.006;2023-01-04T09:52:01;4.25;;;2.33;;
64834;SDS011;51293;59.296;18.006;2023-01-04T09:54:31;4.43;;;2.58;;
64834;SDS011;51293;59.296;18.006;2023-01-04T09:57:09;6.00;;;2.42;;
64834;SDS011;51293;59.296;18.006;2023-01-04T09:59:43;5.88;;;2.60;;
64834;SDS011;51293;59.296;18.006;2023-01-04T10:02:11;8.13;;;2.65;;
64834;SDS011;51293;59.296;18.006;2023-01-04T10:04:45;10.93;;;2.90;;
64834;SDS011;51293;59.296;18.006;2023-01-04T10:07:17;8.23;;;2.85;;
64834;SDS011;51293;59.296;18.006;2023-01-04T10:09:50;13.02;;;2.70;;
64834;SDS011;51293;59.296;18.006;2023-01-04T10:12:19;8.88;;;2.50;;
64834;SDS011;51293;59.296;18.006;2023-01-04T10:17:55;6.88;;;2.55;;
64834;SDS011;51293;59.296;18.006;2023-01-04T10:26:14;3.30;;;1.55;;
64834;SDS011;51293;59.296;18.006;2023-01-04T10:31:50;4.93;;;1.70;;
64834;SDS011;51293;59.296;18.006;2023-01-04T10:34:23;3.20;;;1.70;;
64834;SDS011;51293;59.296;18.006;2023-01-04T10:37:37;4.07;;;1.45;;
64834;SDS011;51293;59.296;18.006;2023-01-04T10:39:44;2.90;;;1.50;;
64834;SDS011;51293;59.296;18.006;2023-01-04T10:42:33;4.28;;;1.70;;
64834;SDS011;51293;59.296;18.006;2023-01-04T10:48:06;3.08;;;1.70;;
64834;SDS011;51293;59.296;18.006;2023-01-04T10:53:30;5.25;;;1.90;;
64834;SDS011;51293;59.296;18.006;2023-01-04T10:56:11;3.53;;;1.90;;
64834;SDS011;51293;59.296;18.006;2023-01-04T10:58:51;3.42;;;1.70;;
64834;SDS011;51293;59.296;18.006;2023-01-04T11:01:20;3.40;;;1.85;;
64834;SDS011;51293;59.296;18.006;2023-01-04T11:04:12;5.15;;;2.08;;
64834;SDS011;51293;59.296;18.006;2023-01-04T11:06:52;4.72;;;2.03;;
64834;SDS011;51293;59.296;18.006;2023-01-04T11:09:23;3.15;;;1.75;;
64834;SDS011;51293;59.296;18.006;2023-01-04T11:11:54;4.95;;;1.80;;
64834;SDS011;51293;59.296;18.006;2023-01-04T11:14:21;5.13;;;1.80;;
64834;SDS011;51293;59.296;18.006;2023-01-04T11:16:49;3.72;;;2.15;;
64834;SDS011;51293;59.296;18.006;2023-01-04T11:19:18;6.10;;;2.20;;
64834;SDS011;51293;59.296;18.006;2023-01-04T11:22:04;6.25;;;2.30;;
64834;SDS011;51293;59.296;18.006;2023-01-04T11:24:36;3.30;;;2.00;;
64834;SDS011;51293;59.296;18.006;2023-01-04T11:27:05;5.60;;;2.20;;
64834;SDS011;51293;59.296;18.006;2023-01-04T11:29:44;3.10;;;1.83;;
64834;SDS011;51293;59.296;18.006;2023-01-04T11:32:16;5.35;;;2.10;;
64834;SDS011;51293;59.296;18.006;2023-01-04T11:34:46;2.95;;;1.73;;
64834;SDS011;51293;59.296;18.006;2023-01-04T11:37:23;9.38;;;2.20;;
64834;SDS011;51293;59.296;18.006;2023-01-04T11:39:53;5.03;;;2.20;;
64834;SDS011;51293;59.296;18.006;2023-01-04T11:42:36;5.18;;;2.78;;
64834;SDS011;51293;59.296;18.006;2023-01-04T11:45:01;4.05;;;2.40;;
64834;SDS011;51293;59.296;18.006;2023-01-04T11:47:27;5.57;;;2.50;;
64834;SDS011;51293;59.296;18.006;2023-01-04T11:49:53;4.43;;;2.40;;
64834;SDS011;51293;59.296;18.006;2023-01-04T11:52:35;4.80;;;2.78;;
64834;SDS011;51293;59.296;18.006;2023-01-04T11:58:04;3.55;;;2.40;;
64834;SDS011;51293;59.296;18.006;2023-01-04T12:00:30;4.15;;;2.40;;
64834;SDS011;51293;59.296;18.006;2023-01-04T12:03:09;5.72;;;2.58;;
64834;SDS011;51293;59.296;18.006;2023-01-04T12:05:35;3.75;;;2.47;;
64834;SDS011;51293;59.296;18.006;2023-01-04T12:08:01;4.28;;;2.42;;
64834;SDS011;51293;59.296;18.006;2023-01-04T12:10:27;7.90;;;3.22;;
64834;SDS011;51293;59.296;18.006;2023-01-04T12:12:53;3.67;;;2.40;;
64834;SDS011;51293;59.296;18.006;2023-01-04T12:15:25;4.88;;;2.78;;
64834;SDS011;51293;59.296;18.006;2023-01-04T12:17:58;5.10;;;2.78;;
64834;SDS011;51293;59.296;18.006;2023-01-04T12:20:30;3.75;;;2.28;;
64834;SDS011;51293;59.296;18.006;2023-01-04T12:22:55;10.60;;;2.85;;
64834;SDS011;51293;59.296;18.006;2023-01-04T12:28:37;6.60;;;2.60;;
64834;SDS011;51293;59.296;18.006;2023-01-04T12:33:44;4.53;;;2.40;;
64834;SDS011;51293;59.296;18.006;2023-01-04T12:36:11;3.92;;;2.10;;
64834;SDS011;51293;59.296;18.006;2023-01-04T12:44:02;2.95;;;2.00;;
64834;SDS011;51293;59.296;18.006;2023-01-04T12:46:50;3.83;;;2.45;;
64834;SDS011;51293;59.296;18.006;2023-01-04T12:49:42;4.60;;;2.22;;
64834;SDS011;51293;59.296;18.006;2023-01-04T12:54:46;4.55;;;2.17;;
64834;SDS011;51293;59.296;18.006;2023-01-04T12:59:57;5.68;;;2.10;;
64834;SDS011;51293;59.296;18.006;2023-01-04T13:05:52;3.88;;;2.10;;
64834;SDS011;51293;59.296;18.006;2023-01-04T13:08:23;8.40;;;2.30;;
64834;SDS011;51293;59.296;18.006;2023-01-04T13:10:49;6.75;;;2.35;;
64834;SDS011;51293;59.296;18.006;2023-01-04T13:13:37;4.13;;;2.20;;
64834;SDS011;51293;59.296;18.006;2023-01-04T13:16:22;4.95;;;2.13;;
64834;SDS011;51293;59.296;18.006;2023-01-04T13:19:01;3.10;;;2.17;;
64834;SDS011;51293;59.296;18.006;2023-01-04T13:21:31;5.90;;;2.33;;
64834;SDS011;51293;59.296;18.006;2023-01-04T13:23:59;4.05;;;2.70;;
64834;SDS011;51293;59.296;18.006;2023-01-04T13:29:11;4.65;;;2.65;;
64834;SDS011;51293;59.296;18.006;2023-01-04T13:31:51;7.32;;;2.72;;
64834;SDS011;51293;59.296;18.006;2023-01-04T13:34:39;4.80;;;2.50;;
64834;SDS011;51293;59.296;18.006;2023-01-04T13:39:37;6.93;;;2.92;;
64834;SDS011;51293;59.296;18.006;2023-01-04T13:42:04;6.30;;;2.85;;
64834;SDS011;51293;59.296;18.006;2023-01-04T13:44:53;8.15;;;2.80;;
64834;SDS011;51293;59.296;18.006;2023-01-04T13:47:37;3.92;;;2.50;;
64834;SDS011;51293;59.296;18.006;2023-01-04T13:50:04;4.60;;;2.60;;
64834;SDS011;51293;59.296;18.006;2023-01-04T13:52:31;3.30;;;2.25;;
64834;SDS011;51293;59.296;18.006;2023-01-04T13:55:10;4.07;;;2.40;;
64834;SDS011;51293;59.296;18.006;2023-01-04T13:57:55;5.03;;;2.28;;
64834;SDS011;51293;59.296;18.006;2023-01-04T14:00:23;3.78;;;1.92;;
64834;SDS011;51293;59.296;18.006;2023-01-04T14:03:01;6.78;;;2.08;;
64834;SDS011;51293;59.296;18.006;2023-01-04T14:05:35;5.43;;;2.00;;
64834;SDS011;51293;59.296;18.006;2023-01-04T14:08:02;6.43;;;1.98;;
64834;SDS011;51293;59.296;18.006;2023-01-04T14:10:35;3.33;;;1.83;;
64834;SDS011;51293;59.296;18.006;2023-01-04T14:13:01;4.35;;;2.05;;
64834;SDS011;51293;59.296;18.006;2023-01-04T14:15:28;3.13;;;2.00;;
64834;SDS011;51293;59.296;18.006;2023-01-04T14:17:57;2.25;;;1.60;;
64834;SDS011;51293;59.296;18.006;2023-01-04T14:22:49;3.03;;;1.75;;
64834;SDS011;51293;59.296;18.006;2023-01-04T14:28:55;4.90;;;1.83;;
64834;SDS011;51293;59.296;18.006;2023-01-04T14:38:35;2.88;;;1.67;;
64834;SDS011;51293;59.296;18.006;2023-01-04T14:41:09;3.35;;;1.75;;
64834;SDS011;51293;59.296;18.006;2023-01-04T14:43:36;3.95;;;1.80;;
64834;SDS011;51293;59.296;18.006;2023-01-04T14:48:34;3.33;;;1.70;;
64834;SDS011;51293;59.296;18.006;2023-01-04T14:50:59;3.90;;;1.70;;
64834;SDS011;51293;59.296;18.006;2023-01-04T14:53:25;5.05;;;1.98;;
64834;SDS011;51293;59.296;18.006;2023-01-04T14:55:51;2.28;;;1.60;;
64834;SDS011;51293;59.296;18.006;2023-01-04T14:58:18;9.13;;;2.30;;
64834;SDS011;51293;59.296;18.006;2023-01-04T15:00:44;2.15;;;1.52;;
64834;SDS011;51293;59.296;18.006;2023-01-04T15:03:09;3.88;;;1.98;;
64834;SDS011;51293;59.296;18.006;2023-01-04T15:05:35;3.70;;;1.80;;
64834;SDS011;51293;59.296;18.006;2023-01-04T15:08:00;7.57;;;1.70;;
64834;SDS011;51293;59.296;18.006;2023-01-04T15:10:26;3.38;;;2.08;;
64834;SDS011;51293;59.296;18.006;2023-01-04T15:12:54;2.65;;;1.60;;
64834;SDS011;51293;59.296;18.006;2023-01-04T15:15:21;4.35;;;1.83;;
64834;SDS011;51293;59.296;18.006;2023-01-04T15:17:47;4.05;;;1.95;;
64834;SDS011;51293;59.296;18.006;2023-01-04T15:20:13;4.70;;;2.00;;
64834;SDS011;51293;59.296;18.006;2023-01-04T15:22:38;7.28;;;1.92;;
64834;SDS011;51293;59.296;18.006;2023-01-04T15:25:05;3.50;;;1.77;;
64834;SDS011;51293;59.296;18.006;2023-01-04T15:27:31;4.20;;;2.05;;
64834;SDS011;51293;59.296;18.006;2023-01-04T15:29:57;6.15;;;1.60;;
64834;SDS011;51293;59.296;18.006;2023-01-04T15:32:22;3.83;;;1.65;;
64834;SDS011;51293;59.296;18.006;2023-01-04T15:34:48;3.80;;;1.70;;
64834;SDS011;51293;59.296;18.006;2023-01-04T15:37:14;4.15;;;1.90;;
64834;SDS011;51293;59.296;18.006;2023-01-04T15:39:39;4.55;;;1.40;;
64834;SDS011;51293;59.296;18.006;2023-01-04T15:42:05;4.65;;;1.45;;
64834;SDS011;51293;59.296;18.006;2023-01-04T15:44:48;4.78;;;1.50;;
64834;SDS011;51293;59.296;18.006;2023-01-04T15:47:14;3.50;;;1.50;;
64834;SDS011;51293;59.296;18.006;2023-01-04T15:49:40;2.42;;;1.23;;
64834;SDS011;51293;59.296;18.006;2023-01-04T15:52:05;3.00;;;1.55;;
64834;SDS011;51293;59.296;18.006;2023-01-04T15:54:31;2.83;;;1.10;;
64834;SDS011;51293;59.296;18.006;2023-01-04T15:56:56;2.42;;;1.25;;
64834;SDS011;51293;59.296;18.006;2023-01-04T15:59:22;2.03;;;1.10;;
64834;SDS011;51293;59.296;18.006;2023-01-04T16:01:47;2.70;;;1.40;;
64834;SDS011;51293;59.296;18.006;2023-01-04T16:04:13;2.00;;;1.00;;
64834;SDS011;51293;59.296;18.006;2023-01-04T16:06:38;4.18;;;1.17;;
64834;SDS011;51293;59.296;18.006;2023-01-04T16:09:04;1.77;;;1.13;;
64834;SDS011;51293;59.296;18.006;2023-01-04T16:11:30;1.55;;;1.20;;
64834;SDS011;51293;59.296;18.006;2023-01-04T16:13:56;2.00;;;1.25;;
64834;SDS011;51293;59.296;18.006;2023-01-04T16:16:22;2.92;;;1.30;;
64834;SDS011;51293;59.296;18.006;2023-01-04T16:18:51;2.70;;;1.50;;
64834;SDS011;51293;59.296;18.006;2023-01-04T16:21:22;3.33;;;1.52;;
64834;SDS011;51293;59.296;18.006;2023-01-04T16:23:53;1.30;;;1.10;;
64834;SDS011;51293;59.296;18.006;2023-01-04T16:26:20;3.75;;;1.27;;